Time;durP1;ratioP1;P1;durP2;ratioP2;P2;SDS_P1;SDS_P2;PMS_P1;PMS_P2;Temp;Humidity;BMP_temperature;BMP_pressure;BME280_temperature;BME280_humidity;BME280_pressure;Samples;Min_cycle;Max_cycle;Signal;HPM_P1;HPM_P2
2023/12/07 00:02:13;;;;;;;;;;;;;;;;;;5010130;28;129674;-72
2023/12/07 00:04:39;;;;;;;;;;;;;;;;;;5007326;28;122011;-71
2023/12/07 00:07:06;;;;;;;;;;;;;;;;;;5006573;28;117790;-70
2023/12/07 00:09:32;;;;;;;;;;;;;;;;;;5017220;28;127852;-71
2023/12/07 00:11:58;;;;;;;;;;;;;;;;;;5012337;28;125364;-71
2023/12/07 00:14:25;;;;;;;;;;;;;;;;;;5005976;28;127412;-71
2023/12/07 00:16:51;;;;;;;;;;;;;;;;;;5007257;28;113253;-72
2023/12/07 00:19:18;;;;;;;;;;;;;;;;;;5001459;28;123070;-71
2023/12/07 00:21:45;;;;;;;;;;;;;;;;;;4995727;28;127708;-72
2023/12/07 00:24:11;;;;;;;;;;;;;;;;;;5005144;28;124501;-71
2023/12/07 00:26:38;;;;;;;;;;;;;;;;;;5018475;28;129100;-71
2023/12/07 00:29:04;;;;;;;;;;;;;;;;;;5015587;28;129452;-72
2023/12/07 00:31:30;;;;;;;;;;;;;;;;;;5000273;28;123187;-72
2023/12/07 00:33:57;;;;;;;;;;;;;;;;;;5006570;28;129056;-71
2023/12/07 00:36:23;;;;;;;;;;;;;;;;;;5010034;28;129378;-71
2023/12/07 00:38:50;;;;;;;;;;;;;;;;;;5005982;28;125062;-71
2023/12/07 00:41:16;;;;;;;;;;;;;;;;;;5005090;28;129631;-72
2023/12/07 00:43:43;;;;;;;;;;;;;;;;;;5005097;28;129470;-72
2023/12/07 00:46:09;;;;;;;;;;;;;;;;;;5000298;28;122926;-72
2023/12/07 00:48:35;;;;;;;;;;;;;;;;;;4999399;28;126118;-71
2023/12/07 00:51:02;;;;;;;;;;;;;;;;;;5002856;28;121837;-72
2023/12/07 00:53:29;;;;;;;;;;;;;;;;;;4999491;28;109762;-71
2023/12/07 00:55:55;;;;;;;;;;;;;;;;;;5005534;28;130280;-72
2023/12/07 00:58:21;;;;;;;;;;;;;;;;;;5005447;28;123824;-71
2023/12/07 01:00:48;;;;;;;;;;;;;;;;;;5007059;28;129133;-71
2023/12/07 01:03:14;;;;;;;;;;;;;;;;;;5005096;28;130163;-72
2023/12/07 01:05:40;;;;;;;;;;;;;;;;;;5009849;28;123934;-72
2023/12/07 01:08:07;;;;;;;;;;;;;;;;;;5005756;28;129081;-72
2023/12/07 01:10:33;;;;;;;;;;;;;;;;;;5005590;28;122912;-72
2023/12/07 01:13:00;;;;;;;;;;;;;;;;;;5006178;28;129471;-72
2023/12/07 01:15:27;;;;;;;;;;;;;;;;;;5005974;28;129330;-72
2023/12/07 01:17:53;;;;;;;;;;;;;;;;;;5019079;28;122322;-72
2023/12/07 01:20:20;;;;;;;;;;;;;;;;;;5025745;27;128984;-71
2023/12/07 01:22:46;;;;;;;;;;;;;;;;;;5025029;28;129330;-70
2023/12/07 01:25:16;;;;;;;;;;;;;;;;;;5025224;27;126746;-71
2023/12/07 01:27:43;;;;;;;;;;;;;;;;;;5029762;27;115471;-71
2023/12/07 01:30:09;;;;;;;;;;;;;;;;;;5007115;28;124109;-71
2023/12/07 01:32:36;;;;;;;;;;;;;;;;;;4995835;28;128964;-70
2023/12/07 01:35:02;;;;;;;;;;;;;;;;;;5001040;28;129461;-71
2023/12/07 01:37:30;;;;;;;;;;;;;;;;;;4995433;28;124569;-71
2023/12/07 01:39:56;;;;;;;;;;;;;;;;;;4997547;28;128971;-71
2023/12/07 01:42:23;;;;;;;;;;;;;;;;;;4996005;28;124464;-71
2023/12/07 01:44:49;;;;;;;;;;;;;;;;;;4999334;28;123491;-72
2023/12/07 01:47:16;;;;;;;;;;;;;;;;;;4995323;28;129209;-71
2023/12/07 01:49:42;;;;;;;;;;;;;;;;;;5001209;28;130088;-71
2023/12/07 01:52:08;;;;;;;;;;;;;;;;;;5000880;28;130814;-71
2023/12/07 01:54:35;;;;;;;;;;;;;;;;;;5003244;28;129503;-71
2023/12/07 01:57:01;;;;;;;;;;;;;;;;;;5008990;28;123833;-72
2023/12/07 01:59:28;;;;;;;;;;;;;;;;;;5005956;28;129644;-71
2023/12/07 02:01:54;;;;;;;;;;;;;;;;;;4998909;28;130907;-71
2023/12/07 02:04:20;;;;;;;;;;;;;;;;;;4999196;28;123151;-71
2023/12/07 02:06:47;;;;;;;;;;;;;;;;;;4999683;28;118229;-71
2023/12/07 02:09:13;;;;;;;;;;;;;;;;;;5005495;28;126774;-71
2023/12/07 02:11:39;;;;;;;;;;;;;;;;;;5005759;28;120613;-71
2023/12/07 02:14:06;;;;;;;;;;;;;;;;;;4999747;28;130234;-71
2023/12/07 02:16:32;;;;;;;;;;;;;;;;;;5004055;28;122706;-72
2023/12/07 02:18:58;;;;;;;;;;;;;;;;;;5001496;28;129971;-71
2023/12/07 02:21:25;;;;;;;;;;;;;;;;;;4997768;28;128053;-71
2023/12/07 02:23:52;;;;;;;;;;;;;;;;;;5000543;28;120732;-71
2023/12/07 02:26:19;;;;;;;;;;;;;;;;;;5003570;28;128503;-71
2023/12/07 02:28:45;;;;;;;;;;;;;;;;;;4996786;28;122846;-71
2023/12/07 02:31:11;;;;;;;;;;;;;;;;;;5001488;28;122276;-71
2023/12/07 02:33:39;;;;;;;;;;;;;;;;;;5000243;28;130426;-71
2023/12/07 02:36:05;;;;;;;;;;;;;;;;;;5000433;28;117712;-70
2023/12/07 02:38:31;;;;;;;;;;;;;;;;;;4999197;28;129647;-71
2023/12/07 02:40:58;;;;;;;;;;;;;;;;;;4997873;28;109806;-71
2023/12/07 02:43:24;;;;;;;;;;;;;;;;;;4997333;28;123245;-71
2023/12/07 02:45:50;;;;;;;;;;;;;;;;;;5003778;28;129231;-71
2023/12/07 02:48:17;;;;;;;;;;;;;;;;;;5003867;28;129906;-72
2023/12/07 02:50:44;;;;;;;;;;;;;;;;;;5002034;28;122952;-71
2023/12/07 02:53:10;;;;;;;;;;;;;;;;;;4999045;28;128987;-71
2023/12/07 02:55:36;;;;;;;;;;;;;;;;;;5000151;28;130417;-71
2023/12/07 02:58:03;;;;;;;;;;;;;;;;;;5000471;28;129145;-70
2023/12/07 03:00:30;;;;;;;;;;;;;;;;;;5000351;28;130312;-72
2023/12/07 03:02:56;;;;;;;;;;;;;;;;;;4995645;28;126117;-72
2023/12/07 03:05:23;;;;;;;;;;;;;;;;;;4997663;28;127518;-72
2023/12/07 03:07:49;;;;;;;;;;;;;;;;;;4996811;28;127820;-72
2023/12/07 03:10:15;;;;;;;;;;;;;;;;;;4998993;28;123103;-71
2023/12/07 03:12:42;;;;;;;;;;;;;;;;;;4996247;28;129396;-70
2023/12/07 03:15:10;;;;;;;;;;;;;;;;;;4999697;28;130318;-70
2023/12/07 03:17:36;;;;;;;;;;;;;;;;;;5005204;27;114925;-71
2023/12/07 03:20:03;;;;;;;;;;;;;;;;;;5003017;28;129907;-71
2023/12/07 03:22:30;;;;;;;;;;;;;;;;;;4997032;28;123045;-71
2023/12/07 03:24:56;;;;;;;;;;;;;;;;;;4999771;28;124363;-71
2023/12/07 03:27:23;;;;;;;;;;;;;;;;;;5000781;28;130384;-71
2023/12/07 03:29:51;;;;;;;;;;;;;;;;;;4997388;28;118643;-72
2023/12/07 03:32:17;;;;;;;;;;;;;;;;;;4999657;28;129381;-72
2023/12/07 03:34:43;;;;;;;;;;;;;;;;;;4998222;28;126463;-71
2023/12/07 03:37:10;;;;;;;;;;;;;;;;;;5002174;28;125765;-71
2023/12/07 03:39:36;;;;;;;;;;;;;;;;;;4998153;28;129506;-72
2023/12/07 03:42:02;;;;;;;;;;;;;;;;;;4997833;28;122798;-70
2023/12/07 03:44:30;;;;;;;;;;;;;;;;;;5008243;28;98438;-70
2023/12/07 03:46:57;;;;;;;;;;;;;;;;;;5007237;28;130086;-69
2023/12/07 03:49:23;;;;;;;;;;;;;;;;;;5006763;28;123133;-71
2023/12/07 03:51:49;;;;;;;;;;;;;;;;;;5006863;28;129228;-71
2023/12/07 03:54:16;;;;;;;;;;;;;;;;;;5006871;28;129485;-71
2023/12/07 03:56:42;;;;;;;;;;;;;;;;;;5007413;28;118636;-72
2023/12/07 03:59:08;;;;;;;;;;;;;;;;;;5009558;28;129083;-71
2023/12/07 04:01:35;;;;;;;;;;;;;;;;;;5007228;28;123148;-70
2023/12/07 04:04:01;;;;;;;;;;;;;;;;;;5007189;28;129803;-71
2023/12/07 04:06:27;;;;;;;;;;;;;;;;;;5007857;28;129494;-71
2023/12/07 04:08:54;;;;;;;;;;;;;;;;;;5027588;28;122237;-71
2023/12/07 04:11:20;;;;;;;;;;;;;;;;;;5026950;28;128520;-71
2023/12/07 04:13:46;;;;;;;;;;;;;;;;;;5015058;28;130149;-71
2023/12/07 04:16:13;;;;;;;;;;;;;;;;;;5001963;28;125891;-72
2023/12/07 04:18:39;;;;;;;;;;;;;;;;;;4994591;28;128631;-71
2023/12/07 04:21:06;;;;;;;;;;;;;;;;;;5000963;28;129376;-71
2023/12/07 04:23:32;;;;;;;;;;;;;;;;;;4998692;28;129020;-71
2023/12/07 04:25:58;;;;;;;;;;;;;;;;;;5001571;28;129414;-71
2023/12/07 04:28:25;;;;;;;;;;;;;;;;;;5006053;28;116527;-72
2023/12/07 04:30:51;;;;;;;;;;;;;;;;;;5005125;28;129062;-72
2023/12/07 04:33:17;;;;;;;;;;;;;;;;;;4995163;28;129432;-71
2023/12/07 04:35:44;;;;;;;;;;;;;;;;;;4995107;28;101407;-71
2023/12/07 04:38:10;;;;;;;;;;;;;;;;;;4997324;28;128832;-71
2023/12/07 04:40:37;;;;;;;;;;;;;;;;;;4997400;28;129824;-71
2023/12/07 04:43:04;;;;;;;;;;;;;;;;;;4999815;28;122344;-71
2023/12/07 04:45:30;;;;;;;;;;;;;;;;;;5000375;28;130641;-72
2023/12/07 04:47:57;;;;;;;;;;;;;;;;;;4996870;28;122678;-71
2023/12/07 04:50:24;;;;;;;;;;;;;;;;;;4998319;28;100061;-71
2023/12/07 04:52:51;;;;;;;;;;;;;;;;;;4997067;28;128921;-70
2023/12/07 04:55:17;;;;;;;;;;;;;;;;;;4998539;28;123778;-72
2023/12/07 04:57:43;;;;;;;;;;;;;;;;;;5005755;28;123166;-72
2023/12/07 05:00:11;;;;;;;;;;;;;;;;;;5005966;28;128781;-72
2023/12/07 05:02:37;;;;;;;;;;;;;;;;;;4999413;28;123839;-70
2023/12/07 05:05:05;;;;;;;;;;;;;;;;;;5001113;28;129922;-71
2023/12/07 05:07:31;;;;;;;;;;;;;;;;;;4993574;28;123065;-72
2023/12/07 05:09:57;;;;;;;;;;;;;;;;;;4994873;28;128982;-71
2023/12/07 05:12:24;;;;;;;;;;;;;;;;;;4995405;28;130165;-71
2023/12/07 05:14:51;;;;;;;;;;;;;;;;;;4998297;28;98351;-72
2023/12/07 05:17:17;;;;;;;;;;;;;;;;;;4999179;28;122315;-71
2023/12/07 05:19:43;;;;;;;;;;;;;;;;;;4995592;28;117936;-71
2023/12/07 05:22:10;;;;;;;;;;;;;;;;;;4995949;28;123391;-73
2023/12/07 05:24:36;;;;;;;;;;;;;;;;;;5002668;28;129781;-72
2023/12/07 05:27:03;;;;;;;;;;;;;;;;;;5001714;28;122102;-71
2023/12/07 05:29:30;;;;;;;;;;;;;;;;;;5008983;28;129142;-72
2023/12/07 05:31:56;;;;;;;;;;;;;;;;;;5004500;28;128266;-72
2023/12/07 05:34:23;;;;;;;;;;;;;;;;;;5000242;28;123097;-72
2023/12/07 05:36:49;;;;;;;;;;;;;;;;;;4999565;28;128828;-72
2023/12/07 05:39:17;;;;;;;;;;;;;;;;;;4996869;28;129368;-71
2023/12/07 05:41:43;;;;;;;;;;;;;;;;;;4999061;28;123117;-71
2023/12/07 05:44:10;;;;;;;;;;;;;;;;;;5002522;28;128498;-72
2023/12/07 05:46:36;;;;;;;;;;;;;;;;;;5006459;28;129485;-72
2023/12/07 05:49:03;;;;;;;;;;;;;;;;;;4998603;28;129470;-72
2023/12/07 05:51:29;;;;;;;;;;;;;;;;;;4998189;28;130118;-70
2023/12/07 05:53:55;;;;;;;;;;;;;;;;;;5000126;28;123997;-72
2023/12/07 05:56:22;;;;;;;;;;;;;;;;;;5001030;28;128881;-72
2023/12/07 05:58:48;;;;;;;;;;;;;;;;;;5006936;28;130634;-71
2023/12/07 06:01:14;;;;;;;;;;;;;;;;;;5008808;28;123822;-71
2023/12/07 06:03:41;;;;;;;;;;;;;;;;;;4999527;28;128410;-71
2023/12/07 06:06:07;;;;;;;;;;;;;;;;;;4999726;28;129874;-70
2023/12/07 06:08:34;;;;;;;;;;;;;;;;;;5005428;28;121899;-72
2023/12/07 06:11:00;;;;;;;;;;;;;;;;;;4994892;28;129569;-70
2023/12/07 06:13:26;;;;;;;;;;;;;;;;;;4997713;28;123068;-71
2023/12/07 06:15:53;;;;;;;;;;;;;;;;;;5003732;28;129834;-71
2023/12/07 06:18:19;;;;;;;;;;;;;;;;;;4999934;28;129608;-71
2023/12/07 06:20:47;;;;;;;;;;;;;;;;;;4999229;28;123053;-72
2023/12/07 06:23:13;;;;;;;;;;;;;;;;;;4998846;28;130201;-73
2023/12/07 06:25:40;;;;;;;;;;;;;;;;;;5001716;28;124092;-71
2023/12/07 06:28:06;;;;;;;;;;;;;;;;;;5000255;28;124341;-70
2023/12/07 06:30:33;;;;;;;;;;;;;;;;;;5011418;28;129312;-71
2023/12/07 06:32:59;;;;;;;;;;;;;;;;;;5007412;28;121834;-70
2023/12/07 06:35:25;;;;;;;;;;;;;;;;;;4998832;28;128871;-69
2023/12/07 06:37:52;;;;;;;;;;;;;;;;;;4996126;28;128342;-71
2023/12/07 06:40:20;;;;;;;;;;;;;;;;;;5001635;28;121462;-71
2023/12/07 06:42:46;;;;;;;;;;;;;;;;;;4997595;28;129584;-71
2023/12/07 06:45:14;;;;;;;;;;;;;;;;;;4996964;28;129369;-71
2023/12/07 06:47:42;;;;;;;;;;;;;;;;;;5000436;28;123018;-71
2023/12/07 06:50:09;;;;;;;;;;;;;;;;;;5008327;28;120491;-72
2023/12/07 06:52:36;;;;;;;;;;;;;;;;;;5011643;28;127041;-71
2023/12/07 06:55:02;;;;;;;;;;;;;;;;;;5007683;28;129200;-70
2023/12/07 06:57:29;;;;;;;;;;;;;;;;;;5017957;28;129627;-71
2023/12/07 06:59:55;;;;;;;;;;;;;;;;;;5028405;28;122063;-71
2023/12/07 07:02:23;;;;;;;;;;;;;;;;;;5005923;28;129033;-71
2023/12/07 07:04:49;;;;;;;;;;;;;;;;;;5005185;28;130169;-72
2023/12/07 07:07:15;;;;;;;;;;;;;;;;;;5006726;28;124570;-71
2023/12/07 07:09:42;;;;;;;;;;;;;;;;;;5007571;28;128807;-71
2023/12/07 07:12:08;;;;;;;;;;;;;;;;;;5007189;28;130134;-71
2023/12/07 07:14:35;;;;;;;;;;;;;;;;;;5010254;28;122759;-71
2023/12/07 07:17:01;;;;;;;;;;;;;;;;;;5006455;27;128681;-71
2023/12/07 07:19:27;;;;;;;;;;;;;;;;;;5006099;28;123582;-71
2023/12/07 07:21:54;;;;;;;;;;;;;;;;;;5007539;28;122617;-71
2023/12/07 07:24:20;;;;;;;;;;;;;;;;;;5005017;28;127633;-70
2023/12/07 07:26:47;;;;;;;;;;;;;;;;;;5006668;28;123930;-70
2023/12/07 07:29:13;;;;;;;;;;;;;;;;;;5003617;28;128976;-71
2023/12/07 07:31:39;;;;;;;;;;;;;;;;;;5005608;28;129507;-71
2023/12/07 07:34:06;;;;;;;;;;;;;;;;;;5010623;28;121680;-71
2023/12/07 07:36:32;;;;;;;;;;;;;;;;;;5004618;28;129624;-72
2023/12/07 07:38:59;;;;;;;;;;;;;;;;;;5000277;28;123033;-71
2023/12/07 07:41:25;;;;;;;;;;;;;;;;;;4998167;28;129095;-71
2023/12/07 07:43:51;;;;;;;;;;;;;;;;;;5000013;28;129608;-71
2023/12/07 07:46:18;;;;;;;;;;;;;;;;;;4994159;28;100755;-71
2023/12/07 07:48:44;;;;;;;;;;;;;;;;;;4993883;28;129702;-72
2023/12/07 07:51:10;;;;;;;;;;;;;;;;;;4992369;28;116672;-70
2023/12/07 07:53:37;;;;;;;;;;;;;;;;;;4991875;28;123052;-70
2023/12/07 07:56:03;;;;;;;;;;;;;;;;;;4998112;28;127265;-71
2023/12/07 07:58:29;;;;;;;;;;;;;;;;;;4992884;28;123052;-70
2023/12/07 08:00:56;;;;;;;;;;;;;;;;;;4996040;28;129103;-70
2023/12/07 08:03:22;;;;;;;;;;;;;;;;;;4990214;28;129399;-70
2023/12/07 08:05:49;;;;;;;;;;;;;;;;;;4990257;28;123702;-71
2023/12/07 08:08:16;;;;;;;;;;;;;;;;;;4991698;28;129059;-71
2023/12/07 08:10:42;;;;;;;;;;;;;;;;;;4995067;28;130149;-71
2023/12/07 08:13:19;;;;;;;;;;;;;;;;;;4996706;28;122337;-71
2023/12/07 08:15:45;;;;;;;;;;;;;;;;;;4997369;28;126134;-71
2023/12/07 08:18:12;;;;;;;;;;;;;;;;;;4999441;28;129320;-73
2023/12/07 08:20:38;;;;;;;;;;;;;;;;;;4998008;28;129420;-72
2023/12/07 08:23:05;;;;;;;;;;;;;;;;;;5000435;28;129519;-72
2023/12/07 08:25:32;;;;;;;;;;;;;;;;;;4997600;28;123896;-71
2023/12/07 08:27:58;;;;;;;;;;;;;;;;;;4996198;28;128891;-71
2023/12/07 08:30:24;;;;;;;;;;;;;;;;;;5002257;28;129600;-71
2023/12/07 08:32:51;;;;;;;;;;;;;;;;;;4994025;28;122768;-72
2023/12/07 08:35:17;;;;;;;;;;;;;;;;;;4991741;28;129024;-72
2023/12/07 08:37:43;;;;;;;;;;;;;;;;;;4992761;28;127198;-72
2023/12/07 08:40:11;;;;;;;;;;;;;;;;;;4998649;28;110604;-71
2023/12/07 08:42:38;;;;;;;;;;;;;;;;;;4998802;28;129158;-71
2023/12/07 08:45:04;;;;;;;;;;;;;;;;;;5000047;28;124123;-71
2023/12/07 08:47:31;;;;;;;;;;;;;;;;;;5006240;28;129799;-71
2023/12/07 08:49:58;;;;;;;;;;;;;;;;;;5006379;28;121194;-71
2023/12/07 08:52:24;;;;;;;;;;;;;;;;;;5006079;28;123982;-71
2023/12/07 08:55:00;;;;;;;;;;;;;;;;;;5006041;28;124806;-72
2023/12/07 08:57:26;;;;;;;;;;;;;;;;;;5024041;28;129438;-71
2023/12/07 08:59:54;;;;;;;;;;;;;;;;;;5026780;28;122807;-71
2023/12/07 09:02:21;;;;;;;;;;;;;;;;;;5025543;27;127525;-71
2023/12/07 09:04:59;;;;;;;;;;;;;;;;;;5010122;28;122767;-72
2023/12/07 09:07:25;;;;;;;;;;;;;;;;;;5009045;28;129076;-72
2023/12/07 09:09:52;;;;;;;;;;;;;;;;;;5009146;28;129666;-71
2023/12/07 09:12:18;;;;;;;;;;;;;;;;;;5003751;28;123159;-71
2023/12/07 09:14:52;;;;;;;;;;;;;;;;;;4994390;28;129055;-70
2023/12/07 09:17:19;;;;;;;;;;;;;;;;;;4989274;28;130268;-71
2023/12/07 09:19:45;;;;;;;;;;;;;;;;;;4989850;28;122773;-71
2023/12/07 09:22:13;;;;;;;;;;;;;;;;;;4993830;28;129886;-71
2023/12/07 09:24:41;;;;;;;;;;;;;;;;;;5013604;28;98312;-71
2023/12/07 09:27:07;;;;;;;;;;;;;;;;;;5002666;28;129121;-72
2023/12/07 09:29:33;;;;;;;;;;;;;;;;;;5005430;28;129461;-71
2023/12/07 09:31:59;;;;;;;;;;;;;;;;;;5006701;28;119438;-71
2023/12/07 09:34:26;;;;;;;;;;;;;;;;;;5004533;28;128961;-71
2023/12/07 09:36:52;;;;;;;;;;;;;;;;;;5006145;28;130146;-71
2023/12/07 09:39:19;;;;;;;;;;;;;;;;;;5007065;28;123052;-71
2023/12/07 09:41:47;;;;;;;;;;;;;;;;;;5008190;28;127940;-73
2023/12/07 09:44:13;;;;;;;;;;;;;;;;;;5011116;28;130007;-73
2023/12/07 09:46:39;;;;;;;;;;;;;;;;;;5009156;28;128238;-71
2023/12/07 09:49:06;;;;;;;;;;;;;;;;;;5007510;28;129220;-72
2023/12/07 09:51:33;;;;;;;;;;;;;;;;;;5007600;28;123055;-72
2023/12/07 09:53:59;;;;;;;;;;;;;;;;;;5009334;28;129707;-71
2023/12/07 09:56:26;;;;;;;;;;;;;;;;;;5007907;28;129215;-71
2023/12/07 09:58:52;;;;;;;;;;;;;;;;;;5005864;28;126169;-71
2023/12/07 10:01:19;;;;;;;;;;;;;;;;;;5009024;28;128993;-71
2023/12/07 10:03:46;;;;;;;;;;;;;;;;;;4989718;28;129655;-72
2023/12/07 10:06:14;;;;;;;;;;;;;;;;;;5006817;28;123188;-72
2023/12/07 10:08:40;;;;;;;;;;;;;;;;;;5008452;28;129454;-70
2023/12/07 10:11:06;;;;;;;;;;;;;;;;;;5006011;28;123212;-71
2023/12/07 10:13:33;;;;;;;;;;;;;;;;;;5008308;28;128424;-72
2023/12/07 10:15:59;;;;;;;;;;;;;;;;;;5006683;28;129516;-71
2023/12/07 10:18:25;;;;;;;;;;;;;;;;;;5007345;28;123972;-74
2023/12/07 10:20:52;;;;;;;;;;;;;;;;;;5006427;28;126561;-71
2023/12/07 10:23:18;;;;;;;;;;;;;;;;;;5007097;28;129449;-71
2023/12/07 10:25:44;;;;;;;;;;;;;;;;;;5006547;28;123848;-72
2023/12/07 10:28:12;;;;;;;;;;;;;;;;;;5011405;28;129638;-72
2023/12/07 10:30:38;;;;;;;;;;;;;;;;;;5007836;28;123008;-71
2023/12/07 10:33:07;;;;;;;;;;;;;;;;;;5008968;28;98552;-72
2023/12/07 10:35:33;;;;;;;;;;;;;;;;;;5007337;28;129125;-71
2023/12/07 10:38:00;;;;;;;;;;;;;;;;;;5006723;28;123105;-71
2023/12/07 10:40:26;;;;;;;;;;;;;;;;;;5006682;28;129137;-70
2023/12/07 10:42:52;;;;;;;;;;;;;;;;;;5008389;28;128373;-71
2023/12/07 10:45:19;;;;;;;;;;;;;;;;;;5006409;28;118666;-71
2023/12/07 10:47:46;;;;;;;;;;;;;;;;;;5016854;28;128581;-71
2023/12/07 10:50:12;;;;;;;;;;;;;;;;;;5011202;28;128981;-71
2023/12/07 10:52:39;;;;;;;;;;;;;;;;;;5005871;28;128830;-71
2023/12/07 10:55:05;;;;;;;;;;;;;;;;;;5001048;28;130471;-72
2023/12/07 10:57:31;;;;;;;;;;;;;;;;;;5008645;28;115928;-72
2023/12/07 10:59:58;;;;;;;;;;;;;;;;;;4999610;28;129746;-72
2023/12/07 11:02:24;;;;;;;;;;;;;;;;;;4987928;28;130651;-71
2023/12/07 11:04:50;;;;;;;;;;;;;;;;;;5001635;28;122657;-71
2023/12/07 11:07:18;;;;;;;;;;;;;;;;;;5002624;28;128940;-71
2023/12/07 11:09:45;;;;;;;;;;;;;;;;;;4996356;28;129875;-72
2023/12/07 11:12:11;;;;;;;;;;;;;;;;;;5005458;28;125470;-71
2023/12/07 11:14:37;;;;;;;;;;;;;;;;;;5007243;28;128336;-70
2023/12/07 11:17:04;;;;;;;;;;;;;;;;;;5007732;28;123413;-71
2023/12/07 11:19:35;;;;;;;;;;;;;;;;;;5004906;28;124181;-71
2023/12/07 11:22:02;;;;;;;;;;;;;;;;;;4997304;28;128246;-72
2023/12/07 11:24:28;;;;;;;;;;;;;;;;;;5026445;27;123887;-71
2023/12/07 11:26:54;;;;;;;;;;;;;;;;;;5002447;28;129013;-72
2023/12/07 11:29:22;;;;;;;;;;;;;;;;;;5005150;28;120491;-70
2023/12/07 11:31:54;;;;;;;;;;;;;;;;;;5006958;28;120064;-72
2023/12/07 11:34:21;;;;;;;;;;;;;;;;;;5006370;28;129260;-72
2023/12/07 11:36:47;;;;;;;;;;;;;;;;;;5006802;28;125729;-74
2023/12/07 11:39:14;;;;;;;;;;;;;;;;;;5007337;28;128473;-72
2023/12/07 11:41:46;;;;;;;;;;;;;;;;;;5007587;28;129625;-72
2023/12/07 11:44:12;;;;;;;;;;;;;;;;;;5007648;28;98202;-71
2023/12/07 11:46:38;;;;;;;;;;;;;;;;;;5005190;28;129060;-71
2023/12/07 11:49:10;;;;;;;;;;;;;;;;;;5006881;28;129535;-70
2023/12/07 11:51:46;;;;;;;;;;;;;;;;;;5010402;28;123923;-73
2023/12/07 11:54:12;;;;;;;;;;;;;;;;;;5011158;28;119110;-73
2023/12/07 11:56:39;;;;;;;;;;;;;;;;;;5004399;28;123767;-72
2023/12/07 11:59:05;;;;;;;;;;;;;;;;;;5004797;28;129024;-73
2023/12/07 12:01:32;;;;;;;;;;;;;;;;;;5006560;28;128826;-72
2023/12/07 12:03:58;;;;;;;;;;;;;;;;;;5004555;28;114725;-72
2023/12/07 12:06:27;;;;;;;;;;;;;;;;;;5002650;28;129407;-72
2023/12/07 12:08:54;;;;;;;;;;;;;;;;;;5003869;28;130181;-73
2023/12/07 12:11:20;;;;;;;;;;;;;;;;;;4999887;28;123974;-70
2023/12/07 12:13:47;;;;;;;;;;;;;;;;;;5004518;28;128960;-71
2023/12/07 12:16:14;;;;;;;;;;;;;;;;;;5010610;28;113220;-72
2023/12/07 12:18:40;;;;;;;;;;;;;;;;;;4999926;28;129813;-71
2023/12/07 12:21:07;;;;;;;;;;;;;;;;;;5002954;28;125894;-70
2023/12/07 12:23:34;;;;;;;;;;;;;;;;;;5001906;28;123551;-71
2023/12/07 12:26:00;;;;;;;;;;;;;;;;;;5006376;28;123916;-71
2023/12/07 12:28:27;;;;;;;;;;;;;;;;;;5004129;28;129429;-71
2023/12/07 12:30:53;;;;;;;;;;;;;;;;;;5004622;28;123096;-71
2023/12/07 12:33:19;;;;;;;;;;;;;;;;;;4998334;28;124952;-72
2023/12/07 12:35:46;;;;;;;;;;;;;;;;;;4999728;28;129414;-71
2023/12/07 12:38:12;;;;;;;;;;;;;;;;;;5010056;28;121678;-70
2023/12/07 12:40:46;;;;;;;;;;;;;;;;;;4997749;28;129409;-70
2023/12/07 12:43:12;;;;;;;;;;;;;;;;;;5006208;28;122283;-70
2023/12/07 12:45:39;;;;;;;;;;;;;;;;;;5005832;28;129000;-71
2023/12/07 12:48:05;;;;;;;;;;;;;;;;;;5005161;28;130196;-70
2023/12/07 12:50:32;;;;;;;;;;;;;;;;;;5003310;28;125409;-70
2023/12/07 12:52:58;;;;;;;;;;;;;;;;;;5004448;28;129049;-72
2023/12/07 12:55:25;;;;;;;;;;;;;;;;;;5005923;28;129638;-70
2023/12/07 12:57:51;;;;;;;;;;;;;;;;;;5006720;28;114682;-71
2023/12/07 13:00:17;;;;;;;;;;;;;;;;;;5008707;28;128952;-71
2023/12/07 13:02:44;;;;;;;;;;;;;;;;;;5006627;28;123071;-72
2023/12/07 13:05:10;;;;;;;;;;;;;;;;;;5006383;28;129412;-70
2023/12/07 13:07:37;;;;;;;;;;;;;;;;;;5002957;28;100326;-71
2023/12/07 13:10:03;;;;;;;;;;;;;;;;;;5004862;28;122997;-70
2023/12/07 13:12:34;;;;;;;;;;;;;;;;;;5005130;28;127086;-72
2023/12/07 13:15:00;;;;;;;;;;;;;;;;;;5004322;28;129549;-71
2023/12/07 13:17:27;;;;;;;;;;;;;;;;;;5005900;28;122919;-71
2023/12/07 13:19:54;;;;;;;;;;;;;;;;;;5000990;28;129164;-70
2023/12/07 13:22:20;;;;;;;;;;;;;;;;;;5006805;28;129526;-71
2023/12/07 13:24:47;;;;;;;;;;;;;;;;;;5001044;28;129119;-72
2023/12/07 13:27:15;;;;;;;;;;;;;;;;;;5004946;28;127035;-70
2023/12/07 13:29:41;;;;;;;;;;;;;;;;;;5005743;28;123091;-72
2023/12/07 13:32:08;;;;;;;;;;;;;;;;;;5003706;28;129060;-72
2023/12/07 13:34:34;;;;;;;;;;;;;;;;;;4985957;28;129520;-72
2023/12/07 13:37:01;;;;;;;;;;;;;;;;;;4994501;28;123153;-71
2023/12/07 13:39:27;;;;;;;;;;;;;;;;;;4997245;28;126553;-72
2023/12/07 13:41:56;;;;;;;;;;;;;;;;;;5008300;28;129749;-71
2023/12/07 13:44:24;;;;;;;;;;;;;;;;;;5005742;28;129091;-70
2023/12/07 13:46:53;;;;;;;;;;;;;;;;;;5004710;28;130219;-72
2023/12/07 13:49:20;;;;;;;;;;;;;;;;;;4987343;28;121296;-72
2023/12/07 13:51:53;;;;;;;;;;;;;;;;;;4989366;28;129236;-71
2023/12/07 13:54:21;;;;;;;;;;;;;;;;;;4997390;28;129250;-71
2023/12/07 13:57:07;;;;;;;;;;;;;;;;;;5008365;28;121343;-73
2023/12/07 13:59:33;;;;;;;;;;;;;;;;;;5009290;28;129230;-73
2023/12/07 14:02:00;;;;;;;;;;;;;;;;;;5008321;28;129562;-72
2023/12/07 14:04:26;;;;;;;;;;;;;;;;;;5009647;28;118435;-72
2023/12/07 14:06:55;;;;;;;;;;;;;;;;;;5007411;28;130349;-73
2023/12/07 14:09:21;;;;;;;;;;;;;;;;;;5008558;28;123020;-70
2023/12/07 14:11:47;;;;;;;;;;;;;;;;;;5009436;28;128976;-73
2023/12/07 14:14:14;;;;;;;;;;;;;;;;;;5008624;28;129581;-71
2023/12/07 14:16:40;;;;;;;;;;;;;;;;;;5007732;28;123784;-72
2023/12/07 14:19:16;;;;;;;;;;;;;;;;;;5009067;28;107072;-73
2023/12/07 14:21:47;;;;;;;;;;;;;;;;;;5009504;28;98983;-71
2023/12/07 14:24:20;;;;;;;;;;;;;;;;;;5006843;28;123111;-73
2023/12/07 14:26:46;;;;;;;;;;;;;;;;;;5009930;28;126873;-72
2023/12/07 14:29:15;;;;;;;;;;;;;;;;;;5000813;28;125412;-72
2023/12/07 14:31:46;;;;;;;;;;;;;;;;;;5007857;28;129110;-71
2023/12/07 14:34:13;;;;;;;;;;;;;;;;;;4993110;28;129549;-70
2023/12/07 14:36:46;;;;;;;;;;;;;;;;;;5007206;28;122034;-72
2023/12/07 14:39:16;;;;;;;;;;;;;;;;;;5005377;28;129058;-71
2023/12/07 14:41:43;;;;;;;;;;;;;;;;;;5008438;28;129408;-71
2023/12/07 14:44:10;;;;;;;;;;;;;;;;;;5008212;28;113339;-69
2023/12/07 14:46:37;;;;;;;;;;;;;;;;;;5006563;28;131121;-71
2023/12/07 14:49:04;;;;;;;;;;;;;;;;;;5011754;28;130312;-69
2023/12/07 14:51:30;;;;;;;;;;;;;;;;;;5007309;28;129031;-71
2023/12/07 14:53:58;;;;;;;;;;;;;;;;;;4996204;28;129436;-70
2023/12/07 14:56:24;;;;;;;;;;;;;;;;;;4992973;28;123320;-69
2023/12/07 14:58:50;;;;;;;;;;;;;;;;;;4994301;28;130915;-69
2023/12/07 15:01:17;;;;;;;;;;;;;;;;;;4998293;28;129402;-70
2023/12/07 15:03:44;;;;;;;;;;;;;;;;;;4996812;28;122657;-70
2023/12/07 15:06:11;;;;;;;;;;;;;;;;;;4999443;28;129903;-69
2023/12/07 15:08:37;;;;;;;;;;;;;;;;;;4999087;28;129242;-70
2023/12/07 15:11:04;;;;;;;;;;;;;;;;;;4998391;28;125065;-70
2023/12/07 15:13:30;;;;;;;;;;;;;;;;;;4994331;28;129431;-71
2023/12/07 15:15:56;;;;;;;;;;;;;;;;;;4999777;28;123143;-70
2023/12/07 15:18:23;;;;;;;;;;;;;;;;;;4998125;28;129854;-69
2023/12/07 15:20:49;;;;;;;;;;;;;;;;;;4998256;28;130222;-69
2023/12/07 15:23:16;;;;;;;;;;;;;;;;;;5004368;28;123004;-70
2023/12/07 15:25:42;;;;;;;;;;;;;;;;;;5007058;28;113837;-71
2023/12/07 15:28:10;;;;;;;;;;;;;;;;;;5006521;28;129567;-72
2023/12/07 15:30:37;;;;;;;;;;;;;;;;;;5007542;28;122963;-72
2023/12/07 15:33:03;;;;;;;;;;;;;;;;;;5011605;28;113531;-72
2023/12/07 15:35:30;;;;;;;;;;;;;;;;;;5005685;28;122358;-71
2023/12/07 15:37:58;;;;;;;;;;;;;;;;;;5005326;28;129196;-71
2023/12/07 15:40:24;;;;;;;;;;;;;;;;;;5004759;28;129564;-71
2023/12/07 15:42:50;;;;;;;;;;;;;;;;;;5006913;28;121757;-75
2023/12/07 15:45:17;;;;;;;;;;;;;;;;;;5003625;28;129826;-76
2023/12/07 15:47:43;;;;;;;;;;;;;;;;;;4992390;28;128722;-73
2023/12/07 15:50:11;;;;;;;;;;;;;;;;;;5005428;28;123032;-73
2023/12/07 15:52:37;;;;;;;;;;;;;;;;;;4998810;28;129806;-73
2023/12/07 15:55:04;;;;;;;;;;;;;;;;;;5005339;28;123065;-73
2023/12/07 15:57:30;;;;;;;;;;;;;;;;;;5004588;28;130205;-73
2023/12/07 15:59:57;;;;;;;;;;;;;;;;;;5002661;28;129695;-73
2023/12/07 16:02:23;;;;;;;;;;;;;;;;;;5003206;28;123846;-72
2023/12/07 16:04:49;;;;;;;;;;;;;;;;;;5002717;28;114364;-73
2023/12/07 16:07:16;;;;;;;;;;;;;;;;;;5001409;28;128935;-72
2023/12/07 16:09:42;;;;;;;;;;;;;;;;;;5005316;28;122996;-73
2023/12/07 16:12:09;;;;;;;;;;;;;;;;;;5003735;28;128873;-73
2023/12/07 16:14:35;;;;;;;;;;;;;;;;;;5007179;28;130169;-71
2023/12/07 16:17:02;;;;;;;;;;;;;;;;;;5001195;28;129093;-73
2023/12/07 16:19:29;;;;;;;;;;;;;;;;;;5004421;28;98921;-73
2023/12/07 16:21:56;;;;;;;;;;;;;;;;;;5002325;28;123509;-72
2023/12/07 16:24:22;;;;;;;;;;;;;;;;;;5003960;28;129009;-73
2023/12/07 16:26:48;;;;;;;;;;;;;;;;;;5004552;28;129502;-71